createdAt,value
2022-10-11T00:00:46.550Z,954.89
2022-10-11T00:01:46.586Z,954.94
2022-10-11T00:02:46.371Z,954.93
2022-10-11T00:03:46.360Z,954.95
2022-10-11T00:04:46.374Z,954.97
2022-10-11T00:05:46.335Z,955.01
2022-10-11T00:06:46.326Z,955.01
2022-10-11T00:07:46.325Z,955.03
2022-10-11T00:08:46.305Z,955.08
2022-10-11T00:09:46.310Z,955.07
2022-10-11T00:10:46.281Z,955.06
2022-10-11T00:11:46.271Z,955.08
2022-10-11T00:12:46.259Z,955.03
2022-10-11T00:13:46.256Z,955.08
2022-10-11T00:14:46.259Z,955.11
2022-10-11T00:15:46.225Z,955.07
2022-10-11T00:16:46.238Z,955.09
2022-10-11T00:17:46.215Z,955.12
2022-10-11T00:18:46.201Z,955.12
2022-10-11T00:19:46.206Z,955.16
2022-10-11T00:20:46.170Z,955.12
2022-10-11T00:21:46.153Z,955.12
2022-10-11T00:22:46.145Z,955.08
2022-10-11T00:23:46.135Z,955.10
2022-10-11T00:24:46.155Z,955.06
2022-10-11T00:25:46.110Z,955.09
2022-10-11T00:26:47.133Z,955.07
2022-10-11T00:27:46.087Z,955.06
2022-10-11T00:28:46.179Z,955.12
2022-10-11T00:29:46.089Z,955.09
2022-10-11T00:30:46.069Z,955.12
2022-10-11T00:31:46.051Z,955.10
2022-10-11T00:32:46.031Z,955.14
2022-10-11T00:33:46.041Z,955.11
2022-10-11T00:34:46.031Z,955.13
2022-10-11T00:35:45.998Z,955.17
2022-10-11T00:36:45.996Z,955.21
2022-10-11T00:37:45.977Z,955.23
2022-10-11T00:38:45.965Z,955.24
2022-10-11T00:39:45.978Z,955.29
2022-10-11T00:40:45.944Z,955.28
2022-10-11T00:41:45.933Z,955.31
2022-10-11T00:42:45.928Z,955.26
2022-10-11T00:43:45.909Z,955.31
2022-10-11T00:44:45.922Z,955.31
2022-10-11T00:45:45.886Z,955.27
2022-10-11T00:46:45.879Z,955.29
2022-10-11T00:47:45.863Z,955.31
2022-10-11T00:48:45.866Z,955.35
2022-10-11T00:49:45.880Z,955.36
2022-10-11T00:50:45.841Z,955.41
2022-10-11T00:51:45.817Z,955.37
2022-10-11T00:52:45.808Z,955.38
2022-10-11T00:53:45.795Z,955.38
2022-10-11T00:54:45.800Z,955.40
2022-10-11T00:55:45.798Z,955.45
2022-10-11T00:56:45.763Z,955.43
2022-10-11T00:57:45.753Z,955.40
2022-10-11T00:58:45.740Z,955.44
2022-10-11T00:59:45.728Z,955.39
2022-10-11T01:00:45.754Z,955.41
2022-10-11T01:01:45.864Z,955.36
2022-10-11T01:02:45.694Z,955.40
2022-10-11T01:03:45.679Z,955.38
2022-10-11T01:04:45.675Z,955.39
2022-10-11T01:05:45.724Z,955.43
2022-10-11T01:06:45.663Z,955.47
2022-10-11T01:07:45.645Z,955.43
2022-10-11T01:08:45.637Z,955.45
2022-10-11T01:09:45.637Z,955.46
2022-10-11T01:10:45.629Z,955.46
2022-10-11T01:11:45.594Z,955.47
2022-10-11T01:12:45.593Z,955.51
2022-10-11T01:13:47.026Z,955.47
2022-10-11T01:14:45.559Z,955.45
2022-10-11T01:15:45.572Z,955.45
2022-10-11T01:16:45.537Z,955.49
2022-10-11T01:17:45.524Z,955.48
2022-10-11T01:18:45.523Z,955.54
2022-10-11T01:19:45.516Z,955.48
2022-10-11T01:20:45.518Z,955.54
2022-10-11T01:21:45.521Z,955.49
2022-10-11T01:22:45.467Z,955.42
2022-10-11T01:23:45.455Z,955.44
2022-10-11T01:24:45.460Z,955.39
2022-10-11T01:25:45.452Z,955.45
2022-10-11T01:26:45.468Z,955.45
2022-10-11T01:27:45.411Z,955.50
2022-10-11T01:28:45.455Z,955.54
2022-10-11T01:29:45.391Z,955.50
2022-10-11T01:30:45.383Z,955.54
2022-10-11T01:31:45.387Z,955.53
2022-10-11T01:32:45.376Z,955.54
2022-10-11T01:33:45.347Z,955.51
2022-10-11T01:34:45.330Z,955.55
2022-10-11T01:35:45.323Z,955.50
2022-10-11T01:36:45.320Z,955.53
2022-10-11T01:37:45.362Z,955.57
2022-10-11T01:38:45.290Z,955.54
2022-10-11T01:39:45.278Z,955.59
2022-10-11T01:40:45.266Z,955.60
2022-10-11T01:41:45.254Z,955.61
2022-10-11T01:42:45.252Z,955.62
2022-10-11T01:43:45.253Z,955.62
2022-10-11T01:44:45.218Z,955.64
2022-10-11T01:45:45.206Z,955.65
2022-10-11T01:46:45.196Z,955.66
2022-10-11T01:47:45.198Z,955.63
2022-10-11T01:48:45.193Z,955.64
2022-10-11T01:49:45.163Z,955.65
2022-10-11T01:50:45.150Z,955.64
2022-10-11T01:51:47.278Z,955.70
2022-10-11T01:52:45.125Z,955.69
2022-10-11T01:53:45.160Z,955.72
2022-10-11T01:55:08.021Z,955.72
2022-10-11T01:55:46.090Z,955.72
2022-10-11T01:56:45.081Z,955.75
2022-10-11T01:57:45.071Z,955.75
2022-10-11T01:58:45.088Z,955.75
2022-10-11T01:59:45.096Z,955.79
2022-10-11T02:00:45.038Z,955.76
2022-10-11T02:01:45.182Z,955.82
2022-10-11T02:02:45.013Z,955.80
2022-10-11T02:03:45.003Z,955.80
2022-10-11T02:04:45.022Z,955.77
2022-10-11T02:05:44.995Z,955.81
2022-10-11T02:06:44.970Z,955.79
2022-10-11T02:07:44.971Z,955.80
2022-10-11T02:08:44.945Z,955.84
2022-10-11T02:09:44.976Z,955.76
2022-10-11T02:10:44.928Z,955.71
2022-10-11T02:11:44.929Z,955.76
2022-10-11T02:12:44.902Z,955.81
2022-10-11T02:13:44.892Z,955.79
2022-10-11T02:14:44.905Z,955.79
2022-10-11T02:15:44.890Z,955.81
2022-10-11T02:16:44.858Z,955.76
2022-10-11T02:17:44.856Z,955.71
2022-10-11T02:18:44.836Z,955.72
2022-10-11T02:19:44.824Z,955.75
2022-10-11T02:20:44.848Z,955.82
2022-10-11T02:21:44.800Z,955.79
2022-10-11T02:22:44.791Z,955.83
2022-10-11T02:23:44.785Z,955.84
2022-10-11T02:24:44.768Z,955.78
2022-10-11T02:25:44.796Z,955.81
2022-10-11T02:26:44.746Z,955.86
2022-10-11T02:27:44.731Z,955.90
2022-10-11T02:28:44.779Z,955.82
2022-10-11T02:29:44.724Z,955.89
2022-10-11T02:30:44.741Z,955.89
2022-10-11T02:31:44.693Z,955.91
2022-10-11T02:32:44.678Z,955.87
2022-10-11T02:33:44.714Z,955.86
2022-10-11T02:34:44.668Z,955.87
2022-10-11T02:35:44.669Z,955.90
2022-10-11T02:36:44.631Z,955.89
2022-10-11T02:37:44.633Z,955.84
2022-10-11T02:38:44.611Z,955.93
2022-10-11T02:39:44.615Z,955.93
2022-10-11T02:40:44.590Z,955.95
2022-10-11T02:41:44.592Z,955.99
2022-10-11T02:42:44.584Z,955.99
2022-10-11T02:43:44.564Z,955.99
2022-10-11T02:44:44.541Z,956.01
2022-10-11T02:45:44.530Z,956.04
2022-10-11T02:46:44.550Z,956.02
2022-10-11T02:47:44.516Z,956.01
2022-10-11T02:48:44.495Z,956.01
2022-10-11T02:49:44.492Z,956.01
2022-10-11T02:50:44.484Z,956.03
2022-10-11T02:51:44.459Z,956.04
2022-10-11T02:52:44.473Z,956.02
2022-10-11T02:53:44.472Z,955.99
2022-10-11T02:54:44.974Z,956.05
2022-10-11T02:55:44.417Z,956.04
2022-10-11T02:56:44.407Z,956.09
2022-10-11T02:57:44.452Z,956.08
2022-10-11T02:58:44.405Z,956.09
2022-10-11T02:59:44.381Z,956.13
2022-10-11T03:00:44.369Z,956.09
2022-10-11T03:01:44.415Z,956.09
2022-10-11T03:02:44.339Z,956.10
2022-10-11T03:03:44.345Z,956.11
2022-10-11T03:04:44.326Z,956.15
2022-10-11T03:05:44.314Z,956.14
2022-10-11T03:06:44.295Z,956.19
2022-10-11T03:07:44.286Z,956.15
2022-10-11T03:08:44.300Z,956.19
2022-10-11T03:09:44.258Z,956.20
2022-10-11T03:10:44.252Z,956.17
2022-10-11T03:11:44.253Z,956.23
2022-10-11T03:12:44.224Z,956.22
2022-10-11T03:13:44.231Z,956.23
2022-10-11T03:14:44.226Z,956.30
2022-10-11T03:15:44.193Z,956.25
2022-10-11T03:16:44.181Z,956.28
2022-10-11T03:17:44.197Z,956.31
2022-10-11T03:18:44.156Z,956.27
2022-10-11T03:19:44.164Z,956.30
2022-10-11T03:20:44.138Z,956.27
2022-10-11T03:21:45.258Z,956.27
2022-10-11T03:22:51.238Z,956.32
2022-10-11T03:23:44.129Z,956.32
2022-10-11T03:24:44.094Z,956.35
2022-10-11T03:25:44.085Z,956.35
2022-10-11T03:26:44.068Z,956.35
2022-10-11T03:27:44.068Z,956.39
2022-10-11T03:28:44.157Z,956.39
2022-10-11T03:29:44.059Z,956.41
2022-10-11T03:30:44.027Z,956.42
2022-10-11T03:31:44.035Z,956.41
2022-10-11T03:32:43.999Z,956.42
2022-10-11T03:33:43.990Z,956.43
2022-10-11T03:34:43.976Z,956.44
2022-10-11T03:35:44.002Z,956.43
2022-10-11T03:36:43.959Z,956.43
2022-10-11T03:37:43.946Z,956.46
2022-10-11T03:38:43.937Z,956.48
2022-10-11T03:39:43.941Z,956.50
2022-10-11T03:40:43.908Z,956.50
2022-10-11T03:41:43.918Z,956.52
2022-10-11T03:42:43.887Z,956.54
2022-10-11T03:43:43.880Z,956.48
2022-10-11T03:44:43.883Z,956.53
2022-10-11T03:45:43.872Z,956.51
2022-10-11T03:46:43.868Z,956.51
2022-10-11T03:47:43.845Z,956.50
2022-10-11T03:48:43.830Z,956.51
2022-10-11T03:49:43.992Z,956.52
2022-10-11T03:50:43.804Z,956.54
2022-10-11T03:51:43.816Z,956.53
2022-10-11T03:52:43.775Z,956.56
2022-10-11T03:53:43.766Z,956.53
2022-10-11T03:54:43.754Z,956.57
2022-10-11T03:55:43.757Z,956.59
2022-10-11T03:56:43.753Z,956.59
2022-10-11T03:57:43.717Z,956.61
2022-10-11T03:58:43.706Z,956.62
2022-10-11T03:59:43.698Z,956.64
2022-10-11T04:00:43.689Z,956.61
2022-10-11T04:01:43.790Z,956.62
2022-10-11T04:02:43.670Z,956.65
2022-10-11T04:03:43.654Z,956.65
2022-10-11T04:04:43.638Z,956.63
2022-10-11T04:05:43.711Z,956.61
2022-10-11T04:06:43.634Z,956.65
2022-10-11T04:07:43.605Z,956.71
2022-10-11T04:08:43.601Z,956.64
2022-10-11T04:09:43.585Z,956.70
2022-10-11T04:10:43.575Z,956.67
2022-10-11T04:11:43.588Z,956.70
2022-10-11T04:12:43.549Z,956.72
2022-10-11T04:13:43.583Z,956.70
2022-10-11T04:14:43.569Z,956.70
2022-10-11T04:15:43.538Z,956.75
2022-10-11T04:16:43.505Z,956.77
2022-10-11T04:17:43.510Z,956.78
2022-10-11T04:18:43.482Z,956.77
2022-10-11T04:19:43.471Z,956.84
2022-10-11T04:20:43.469Z,956.80
2022-10-11T04:21:43.470Z,956.82
2022-10-11T04:22:43.440Z,956.83
2022-10-11T04:23:43.433Z,956.87
2022-10-11T04:24:43.430Z,956.86
2022-10-11T04:25:43.427Z,956.91
2022-10-11T04:26:43.392Z,956.86
2022-10-11T04:27:43.390Z,956.87
2022-10-11T04:28:43.479Z,956.89
2022-10-11T04:29:43.359Z,956.94
2022-10-11T04:30:43.363Z,956.95
2022-10-11T04:31:43.342Z,956.90
2022-10-11T04:32:43.322Z,956.91
2022-10-11T04:33:43.333Z,957.00
2022-10-11T04:34:43.402Z,956.96
2022-10-11T04:35:43.798Z,956.98
2022-10-11T04:36:46.378Z,956.97
2022-10-11T04:37:44.267Z,956.98
2022-10-11T04:38:43.272Z,956.98
2022-10-11T04:39:45.907Z,957.00
2022-10-11T04:40:43.254Z,957.02
2022-10-11T04:41:43.222Z,957.04
2022-10-11T04:42:43.211Z,957.07
2022-10-11T04:43:43.202Z,957.04
2022-10-11T04:44:43.189Z,957.02
2022-10-11T04:45:43.204Z,957.11
2022-10-11T04:46:43.166Z,957.09
2022-10-11T04:47:43.156Z,957.09
2022-10-11T04:48:43.171Z,957.08
2022-10-11T04:49:43.160Z,957.12
2022-10-11T04:50:43.118Z,957.08
2022-10-11T04:51:43.117Z,957.10
2022-10-11T04:52:43.125Z,957.10
2022-10-11T04:53:43.085Z,957.12
2022-10-11T04:54:43.075Z,957.14
2022-10-11T04:55:43.067Z,957.18
2022-10-11T04:56:43.054Z,957.19
2022-10-11T04:57:43.078Z,957.19
2022-10-11T04:58:43.031Z,957.20
2022-10-11T04:59:47.870Z,957.23
2022-10-11T05:00:44.005Z,957.27
2022-10-11T05:01:43.147Z,957.29
2022-10-11T05:02:42.985Z,957.30
2022-10-11T05:03:43.013Z,957.27
2022-10-11T05:04:42.961Z,957.35
2022-10-11T05:05:42.971Z,957.28
2022-10-11T05:06:42.941Z,957.37
2022-10-11T05:07:42.950Z,957.29
2022-10-11T05:08:42.919Z,957.30
2022-10-11T05:09:42.969Z,957.35
2022-10-11T05:10:42.899Z,957.34
2022-10-11T05:11:42.889Z,957.35
2022-10-11T05:12:42.893Z,957.39
2022-10-11T05:13:42.863Z,957.42
2022-10-11T05:14:42.870Z,957.43
2022-10-11T05:15:42.850Z,957.39
2022-10-11T05:16:42.827Z,957.38
2022-10-11T05:17:42.832Z,957.43
2022-10-11T05:18:42.826Z,957.40
2022-10-11T05:19:42.796Z,957.44
2022-10-11T05:20:42.782Z,957.43
2022-10-11T05:21:42.789Z,957.43
2022-10-11T05:22:42.762Z,957.43
2022-10-11T05:23:42.768Z,957.47
2022-10-11T05:24:42.757Z,957.51
2022-10-11T05:25:42.735Z,957.50
2022-10-11T05:26:42.711Z,957.47
2022-10-11T05:27:42.712Z,957.49
2022-10-11T05:28:42.814Z,957.52
2022-10-11T05:29:42.685Z,957.57
2022-10-11T05:30:42.691Z,957.53
2022-10-11T05:31:42.659Z,957.57
2022-10-11T05:32:42.651Z,957.59
2022-10-11T05:33:42.649Z,957.57
2022-10-11T05:34:42.655Z,957.62
2022-10-11T05:35:42.616Z,957.61
2022-10-11T05:36:42.608Z,957.61
2022-10-11T05:37:42.613Z,957.68
2022-10-11T05:38:42.596Z,957.67
2022-10-11T05:39:42.592Z,957.69
2022-10-11T05:40:42.564Z,957.68
2022-10-11T05:41:42.548Z,957.71
2022-10-11T05:42:42.538Z,957.71
2022-10-11T05:43:42.524Z,957.68
2022-10-11T05:44:42.535Z,957.70
2022-10-11T05:45:42.505Z,957.75
2022-10-11T05:46:42.495Z,957.77
2022-10-11T05:47:42.478Z,957.79
2022-10-11T05:48:42.467Z,957.80
2022-10-11T05:49:42.496Z,957.86
2022-10-11T05:50:42.465Z,957.86
2022-10-11T05:51:42.443Z,957.84
2022-10-11T05:52:42.429Z,957.87
2022-10-11T05:53:42.427Z,957.90
2022-10-11T05:54:42.401Z,957.90
2022-10-11T05:55:42.409Z,957.89
2022-10-11T05:56:42.378Z,957.90
2022-10-11T05:57:42.369Z,957.93
2022-10-11T05:58:42.375Z,957.92
2022-10-11T05:59:42.364Z,957.92
2022-10-11T06:00:42.359Z,957.95
2022-10-11T06:01:42.411Z,957.99
2022-10-11T06:02:42.314Z,958.00
2022-10-11T06:03:42.298Z,957.96
2022-10-11T06:04:42.296Z,957.96
2022-10-11T06:05:42.275Z,957.97
2022-10-11T06:06:42.268Z,958.00
2022-10-11T06:07:42.272Z,958.04
2022-10-11T06:08:42.258Z,958.04
2022-10-11T06:09:42.249Z,958.05
2022-10-11T06:10:42.218Z,958.03
2022-10-11T06:11:42.226Z,958.06
2022-10-11T06:12:42.244Z,958.06
2022-10-11T06:13:42.217Z,958.05
2022-10-11T06:14:42.175Z,958.04
2022-10-11T06:15:42.162Z,958.05
2022-10-11T06:16:42.204Z,958.13
2022-10-11T06:17:42.141Z,958.13
2022-10-11T06:18:42.223Z,958.15
2022-10-11T06:19:42.296Z,958.15
2022-10-11T06:20:42.118Z,958.16
2022-10-11T06:21:42.108Z,958.16
2022-10-11T06:22:42.113Z,958.16
2022-10-11T06:23:42.078Z,958.19
2022-10-11T06:24:42.112Z,958.22
2022-10-11T06:25:42.076Z,958.26
2022-10-11T06:26:42.065Z,958.27
2022-10-11T06:27:42.041Z,958.26
2022-10-11T06:28:42.114Z,958.26
2022-10-11T06:29:42.021Z,958.23
2022-10-11T06:30:42.000Z,958.26
2022-10-11T06:31:41.986Z,958.23
2022-10-11T06:32:41.981Z,958.18
2022-10-11T06:33:41.980Z,958.24
2022-10-11T06:34:41.951Z,958.20
2022-10-11T06:35:41.937Z,958.20
2022-10-11T06:36:41.930Z,958.22
2022-10-11T06:37:41.925Z,958.21
2022-10-11T06:38:45.013Z,958.23
2022-10-11T06:39:41.895Z,958.21
2022-10-11T06:40:41.901Z,958.25
2022-10-11T06:41:41.888Z,958.27
2022-10-11T06:42:41.881Z,958.30
2022-10-11T06:43:41.873Z,958.29
2022-10-11T06:44:41.839Z,958.31
2022-10-11T06:45:41.855Z,958.34
2022-10-11T06:46:41.819Z,958.35
2022-10-11T06:47:41.805Z,958.37
2022-10-11T06:48:41.792Z,958.43
2022-10-11T06:49:41.786Z,958.43
2022-10-11T06:50:59.238Z,958.43
2022-10-11T06:51:42.822Z,958.36
2022-10-11T06:52:41.749Z,958.44
2022-10-11T06:53:41.755Z,958.47
2022-10-11T06:54:44.931Z,958.49
2022-10-11T06:55:41.714Z,958.51
2022-10-11T06:56:41.759Z,958.52
2022-10-11T06:57:41.759Z,958.53
2022-10-11T06:58:41.701Z,958.56
2022-10-11T06:59:41.668Z,958.55
2022-10-11T07:00:41.728Z,958.59
2022-10-11T07:01:41.673Z,958.59
2022-10-11T07:02:41.660Z,958.62
2022-10-11T07:03:41.650Z,958.63
2022-10-11T07:04:41.613Z,958.67
2022-10-11T07:05:41.599Z,958.65
2022-10-11T07:06:41.589Z,958.65
2022-10-11T07:07:41.609Z,958.66
2022-10-11T07:08:41.582Z,958.69
2022-10-11T07:09:41.567Z,958.66
2022-10-11T07:10:41.541Z,958.68
2022-10-11T07:11:41.531Z,958.72
2022-10-11T07:12:41.525Z,958.71
2022-10-11T07:13:41.560Z,958.72
2022-10-11T07:14:41.548Z,958.76
2022-10-11T07:15:41.489Z,958.79
2022-10-11T07:16:41.506Z,958.80
2022-10-11T07:17:41.488Z,958.83
2022-10-11T07:18:41.453Z,958.84
2022-10-11T07:19:41.471Z,958.82
2022-10-11T07:20:41.476Z,958.82
2022-10-11T07:21:41.426Z,958.84
2022-10-11T07:22:41.413Z,958.87
2022-10-11T07:23:41.397Z,958.90
2022-10-11T07:24:41.387Z,958.87
2022-10-11T07:25:41.395Z,958.91
2022-10-11T07:26:41.384Z,958.88
2022-10-11T07:27:41.359Z,958.85
2022-10-11T07:28:41.390Z,958.91
2022-10-11T07:29:41.371Z,958.90
2022-10-11T07:30:41.320Z,958.90
2022-10-11T07:31:41.332Z,958.92
2022-10-11T07:32:41.294Z,958.90
2022-10-11T07:33:41.320Z,958.92
2022-10-11T07:34:41.273Z,958.90
2022-10-11T07:35:44.715Z,958.95
2022-10-11T07:36:42.290Z,958.96
2022-10-11T07:37:41.250Z,958.98
2022-10-11T07:38:41.227Z,958.96
2022-10-11T07:39:41.243Z,958.98
2022-10-11T07:40:41.206Z,958.95
2022-10-11T07:41:45.651Z,958.99
2022-10-11T07:42:41.188Z,958.94
2022-10-11T07:43:41.170Z,958.97
2022-10-11T07:44:41.180Z,958.96
2022-10-11T07:45:41.177Z,958.99
2022-10-11T07:46:41.143Z,958.97
2022-10-11T07:47:41.131Z,958.97
2022-10-11T07:48:41.127Z,958.96
2022-10-11T07:49:41.121Z,958.95
2022-10-11T07:50:41.095Z,958.95
2022-10-11T07:51:41.081Z,959.03
2022-10-11T07:52:41.070Z,959.00
2022-10-11T07:53:41.070Z,958.99
2022-10-11T07:54:41.065Z,958.98
2022-10-11T07:55:41.033Z,958.98
2022-10-11T07:56:41.044Z,958.99
2022-10-11T07:57:41.011Z,958.98
2022-10-11T07:58:41.001Z,958.99
2022-10-11T07:59:40.997Z,959.02
2022-10-11T08:00:40.981Z,959.02
2022-10-11T08:01:41.029Z,959.05
2022-10-11T08:02:40.959Z,959.02
2022-10-11T08:03:40.946Z,959.01
2022-10-11T08:04:40.935Z,959.05
2022-10-11T08:05:40.969Z,959.08
2022-10-11T08:06:40.914Z,958.97
2022-10-11T08:07:40.901Z,959.06
2022-10-11T08:08:40.890Z,959.05
2022-10-11T08:09:40.878Z,959.02
2022-10-11T08:10:40.869Z,959.08
2022-10-11T08:11:40.884Z,959.09
2022-10-11T08:12:40.863Z,959.12
2022-10-11T08:13:40.840Z,959.14
2022-10-11T08:14:40.849Z,959.15
2022-10-11T08:15:40.808Z,959.18
2022-10-11T08:16:40.799Z,959.18
2022-10-11T08:17:40.804Z,959.14
2022-10-11T08:18:40.798Z,959.17
2022-10-11T08:19:40.764Z,959.15
2022-10-11T08:20:40.756Z,959.17
2022-10-11T08:21:40.764Z,959.11
2022-10-11T08:22:40.801Z,959.14
2022-10-11T08:23:40.771Z,959.24
2022-10-11T08:24:40.733Z,959.20
2022-10-11T08:25:40.696Z,959.15
2022-10-11T08:26:40.687Z,959.21
2022-10-11T08:27:40.676Z,959.18
2022-10-11T08:28:40.703Z,959.23
2022-10-11T08:29:40.667Z,959.20
2022-10-11T08:30:40.661Z,959.17
2022-10-11T08:31:40.632Z,959.20
2022-10-11T08:32:40.619Z,959.22
2022-10-11T08:33:40.629Z,959.23
2022-10-11T08:34:40.598Z,959.22
2022-10-11T08:35:40.623Z,959.21
2022-10-11T08:36:40.579Z,959.22
2022-10-11T08:37:40.577Z,959.18
2022-10-11T08:38:40.615Z,959.18
2022-10-11T08:39:40.562Z,959.22
2022-10-11T08:40:40.532Z,959.18
2022-10-11T08:41:40.536Z,959.19
2022-10-11T08:42:40.510Z,959.21
2022-10-11T08:43:40.518Z,959.22
2022-10-11T08:45:41.541Z,959.22
2022-10-11T08:46:40.461Z,959.23
2022-10-11T08:47:40.446Z,959.20
2022-10-11T08:48:40.437Z,959.23
2022-10-11T08:49:40.461Z,959.25
2022-10-11T08:50:40.420Z,959.26
2022-10-11T08:51:40.404Z,959.28
2022-10-11T08:52:40.404Z,959.30
2022-10-11T08:53:40.522Z,959.27
2022-10-11T08:54:40.390Z,959.31
2022-10-11T08:55:40.374Z,959.26
2022-10-11T08:56:40.353Z,959.31
2022-10-11T08:57:40.899Z,959.30
2022-10-11T08:58:41.872Z,959.28
2022-10-11T08:59:40.334Z,959.26
2022-10-11T09:00:40.316Z,959.28
2022-10-11T09:01:40.338Z,959.30
2022-10-11T09:03:06.440Z,959.32
2022-10-11T09:03:41.267Z,959.31
2022-10-11T09:04:40.336Z,959.27
2022-10-11T09:05:40.276Z,959.32
2022-10-11T09:06:40.236Z,959.31
2022-10-11T09:07:40.219Z,959.33
2022-10-11T09:08:40.211Z,959.29
2022-10-11T09:09:40.363Z,959.24
2022-10-11T09:10:40.208Z,959.28
2022-10-11T09:11:40.176Z,959.27
2022-10-11T09:12:41.060Z,959.36
2022-10-11T09:13:40.162Z,959.38
2022-10-11T09:14:40.147Z,959.38
2022-10-11T09:15:40.152Z,959.42
2022-10-11T09:16:40.122Z,959.38
2022-10-11T09:17:40.108Z,959.38
2022-10-11T09:18:40.096Z,959.32
2022-10-11T09:19:40.090Z,959.31
2022-10-11T09:20:40.087Z,959.36
2022-10-11T09:21:40.158Z,959.36
2022-10-11T09:22:40.149Z,959.34
2022-10-11T09:23:40.049Z,959.33
2022-10-11T09:24:40.033Z,959.34
2022-10-11T09:25:40.041Z,959.35
2022-10-11T09:26:40.008Z,959.32
2022-10-11T09:28:03.466Z,959.34
2022-10-11T09:28:41.073Z,959.39
2022-10-11T09:29:39.979Z,959.34
2022-10-11T09:30:39.966Z,959.38
2022-10-11T09:31:39.970Z,959.40
2022-10-11T09:32:39.958Z,959.36
2022-10-11T09:33:39.935Z,959.37
2022-10-11T09:34:39.921Z,959.34
2022-10-11T09:35:39.929Z,959.37
2022-10-11T09:36:39.898Z,959.34
2022-10-11T09:37:39.907Z,959.33
2022-10-11T09:38:39.915Z,959.37
2022-10-11T09:39:39.862Z,959.35
2022-10-11T09:40:39.863Z,959.40
2022-10-11T09:41:39.843Z,959.36
2022-10-11T09:42:39.827Z,959.34
2022-10-11T09:43:39.834Z,959.34
2022-10-11T09:44:39.824Z,959.36
2022-10-11T09:45:39.801Z,959.35
2022-10-11T09:46:39.782Z,959.34
2022-10-11T09:47:39.770Z,959.37
2022-10-11T09:48:39.782Z,959.38
2022-10-11T09:49:39.911Z,959.40
2022-10-11T09:50:39.758Z,959.41
2022-10-11T09:51:39.745Z,959.36
2022-10-11T09:52:39.716Z,959.37
2022-10-11T09:53:39.860Z,959.32
2022-10-11T09:54:39.693Z,959.31
2022-10-11T09:55:39.680Z,959.36
2022-10-11T09:56:39.686Z,959.37
2022-10-11T09:57:39.664Z,959.34
2022-10-11T09:58:39.647Z,959.33
2022-10-11T09:59:39.659Z,959.36
2022-10-11T10:00:39.638Z,959.38
2022-10-11T10:01:39.700Z,959.36
2022-10-11T10:02:39.598Z,959.40
2022-10-11T10:03:39.588Z,959.38
2022-10-11T10:04:39.580Z,959.45
2022-10-11T10:05:39.596Z,959.43
2022-10-11T10:06:39.574Z,959.48
2022-10-11T10:07:39.544Z,959.46
2022-10-11T10:08:39.539Z,959.45
2022-10-11T10:09:39.542Z,959.42
2022-10-11T10:10:39.546Z,959.40
2022-10-11T10:11:39.547Z,959.41
2022-10-11T10:12:39.508Z,959.41
2022-10-11T10:13:39.476Z,959.45
2022-10-11T10:14:39.469Z,959.42
2022-10-11T10:15:39.456Z,959.44
2022-10-11T10:16:39.446Z,959.43
2022-10-11T10:17:39.462Z,959.47
2022-10-11T10:18:39.421Z,959.48
2022-10-11T10:19:44.476Z,959.46
2022-10-11T10:20:40.406Z,959.47
2022-10-11T10:21:39.387Z,959.45
2022-10-11T10:22:39.395Z,959.50
2022-10-11T10:23:39.362Z,959.52
2022-10-11T10:24:39.358Z,959.54
2022-10-11T10:25:43.276Z,959.48
2022-10-11T10:26:39.329Z,959.49
2022-10-11T10:27:39.351Z,959.47
2022-10-11T10:28:39.399Z,959.46
2022-10-11T10:29:39.293Z,959.50
2022-10-11T10:30:39.286Z,959.45
2022-10-11T10:32:02.029Z,959.51
2022-10-11T10:32:43.781Z,959.52
2022-10-11T10:33:40.248Z,959.46
2022-10-11T10:34:39.239Z,959.53
2022-10-11T10:35:39.229Z,959.48
2022-10-11T10:36:39.237Z,959.50
2022-10-11T10:37:39.232Z,959.53
2022-10-11T10:38:39.216Z,959.52
2022-10-11T10:39:39.211Z,959.53
2022-10-11T10:40:39.186Z,959.57
2022-10-11T10:41:39.186Z,959.62
2022-10-11T10:42:39.190Z,959.62
2022-10-11T10:43:39.178Z,959.62
2022-10-11T10:44:39.127Z,959.61
2022-10-11T10:45:39.123Z,959.62
2022-10-11T10:46:39.110Z,959.63
2022-10-11T10:47:39.095Z,959.64
2022-10-11T10:49:12.058Z,959.64
2022-10-11T10:49:55.564Z,959.61
2022-10-11T10:50:40.061Z,959.64
2022-10-11T10:51:39.050Z,959.62
2022-10-11T10:52:39.041Z,959.59
2022-10-11T10:53:39.099Z,959.61
2022-10-11T10:54:39.039Z,959.55
2022-10-11T10:55:39.027Z,959.57
2022-10-11T10:56:39.000Z,959.54
2022-10-11T10:57:39.004Z,959.53
2022-10-11T10:58:38.976Z,959.58
2022-10-11T10:59:38.979Z,959.57
2022-10-11T11:00:38.970Z,959.59
2022-10-11T11:01:38.976Z,959.63
2022-10-11T11:02:41.081Z,959.63
2022-10-11T11:03:38.937Z,959.61
2022-10-11T11:04:38.914Z,959.66
2022-10-11T11:05:38.902Z,959.60
2022-10-11T11:06:38.906Z,959.59
2022-10-11T11:07:38.875Z,959.58
2022-10-11T11:08:38.926Z,959.60
2022-10-11T11:09:38.861Z,959.57
2022-10-11T11:10:38.840Z,959.57
2022-10-11T11:11:38.827Z,959.57
2022-10-11T11:12:38.846Z,959.54
2022-10-11T11:13:38.825Z,959.58
2022-10-11T11:14:38.802Z,959.55
2022-10-11T11:15:38.802Z,959.53
2022-10-11T11:16:38.775Z,959.53
2022-10-11T11:17:38.769Z,959.55
2022-10-11T11:18:38.781Z,959.54
2022-10-11T11:19:38.745Z,959.54
2022-10-11T11:20:38.732Z,959.51
2022-10-11T11:21:41.560Z,959.53
2022-10-11T11:22:38.723Z,959.53
2022-10-11T11:23:38.708Z,959.53
2022-10-11T11:24:38.707Z,959.51
2022-10-11T11:25:42.598Z,959.47
2022-10-11T11:26:43.461Z,959.50
2022-10-11T11:27:38.655Z,959.51
2022-10-11T11:28:38.803Z,959.51
2022-10-11T11:29:38.671Z,959.52
2022-10-11T11:30:38.632Z,959.52
2022-10-11T11:31:38.633Z,959.51
2022-10-11T11:32:41.237Z,959.53
2022-10-11T11:33:39.587Z,959.48
2022-10-11T11:34:38.577Z,959.48
2022-10-11T11:35:38.565Z,959.45
2022-10-11T11:36:38.579Z,959.47
2022-10-11T11:37:38.542Z,959.46
2022-10-11T11:38:38.535Z,959.47
2022-10-11T11:39:38.520Z,959.50
2022-10-11T11:40:38.529Z,959.48
2022-10-11T11:41:38.495Z,959.44
2022-10-11T11:42:38.505Z,959.42
2022-10-11T11:43:38.474Z,959.46
2022-10-11T11:44:38.482Z,959.47
2022-10-11T11:45:38.465Z,959.50
2022-10-11T11:46:38.454Z,959.49
2022-10-11T11:47:38.428Z,959.48
2022-10-11T11:48:38.428Z,959.46
2022-10-11T11:49:38.467Z,959.45
2022-10-11T11:50:38.396Z,959.47
2022-10-11T11:51:38.424Z,959.47
2022-10-11T11:52:38.383Z,959.44
2022-10-11T11:53:38.378Z,959.43
2022-10-11T11:54:38.385Z,959.40
2022-10-11T11:55:38.340Z,959.41
2022-10-11T11:56:38.348Z,959.42
2022-10-11T11:57:38.341Z,959.46
2022-10-11T11:58:38.306Z,959.47
2022-10-11T11:59:38.301Z,959.47
2022-10-11T12:00:38.290Z,959.46
2022-10-11T12:01:38.394Z,959.44
2022-10-11T12:02:38.279Z,959.47
2022-10-11T12:03:41.610Z,959.42
2022-10-11T12:04:38.242Z,959.36
2022-10-11T12:05:38.230Z,959.35
2022-10-11T12:06:52.409Z,959.36
2022-10-11T12:07:39.212Z,959.39
2022-10-11T12:08:38.214Z,959.38
2022-10-11T12:09:38.230Z,959.35
2022-10-11T12:10:38.172Z,959.35
2022-10-11T12:11:38.181Z,959.33
2022-10-11T12:12:38.175Z,959.35
2022-10-11T12:13:38.167Z,959.35
2022-10-11T12:14:38.132Z,959.35
2022-10-11T12:15:38.130Z,959.32
2022-10-11T12:16:38.106Z,959.37
2022-10-11T12:17:38.131Z,959.33
2022-10-11T12:18:42.574Z,959.29
2022-10-11T12:19:38.078Z,959.34
2022-10-11T12:20:38.064Z,959.35
2022-10-11T12:21:38.050Z,959.33
2022-10-11T12:22:38.038Z,959.32
2022-10-11T12:23:38.047Z,959.33
2022-10-11T12:24:38.015Z,959.28
2022-10-11T12:25:38.007Z,959.33
2022-10-11T12:26:38.003Z,959.36
2022-10-11T12:27:37.984Z,959.36
2022-10-11T12:28:38.025Z,959.26
2022-10-11T12:29:37.967Z,959.33